Latest Coastal Weather Observations for Hamilton Island

IDQ60701

Issued at 4:15 pm EST Sunday 26 October 2014 (issued every 10 minutes, with the page automatically refreshed every 10 minutes)

About coastal observations | Map of coastal stations | Coastal observations for QLD | Marine services | Other Formats
Station Details ID: 033106 Name: HAMILTON ISLAND AIRPORT Lat: -20.37 Lon: 148.95 Height: 58.66 m
Data from the previous 72 hours. | See also: Recent months at Hamilton Island
Date/Time
EST
Temp

°C
Wind Pressure Rain
since 9am
mm
Weather Cloud Vis
km
Sea
Height
m
Swell
Dir
 
Speed
knots
Gust
knots
hPa Trend Height
m
Period
s
Dir
26/04:00pm 24.3 E 13 16 1015.3 - 0.0 - - 10 - - - -
26/03:30pm 24.2 E 16 18 1015.1 - 0.0 - - 10 - - - -
26/03:00pm 24.6 E 14 17 1015.3 - 0.0 - - 10 - - - -
26/02:30pm 24.5 E 14 16 1015.6 - 0.0 - - 10 - - - -
26/02:00pm 25.2 E 11 13 1016.0 - 0.0 - - 10 - - - -
26/01:30pm 25.8 ESE 11 13 1016.3 - 0.0 - - 10 - - - -
26/01:00pm 25.6 ESE 12 14 1016.6 - 0.0 - - 10 - - - -
26/12:30pm 25.4 E 11 13 1016.7 - 0.0 - - 10 - - - -
26/12:00pm 26.3 ESE 10 11 1017.0 - 0.0 - - 10 - - - -
26/11:30am 25.3 E 9 11 1017.7 - 0.0 - - 10 - - - -
26/11:00am 25.8 ESE 9 11 1018.0 - 0.0 - - 10 - - - -
26/10:30am 25.2 ESE 9 11 1018.3 - 0.0 - - 10 - - - -
26/10:00am 26.3 ESE 8 10 1018.4 - 0.0 - - 10 - - - -
26/09:30am 25.2 E 8 9 1018.4 - 0.0 - Partly cloudy 10 - - - -
26/09:00am 24.9 ESE 8 10 1018.4 - 0.0 - - 10 - - - -
26/08:30am 25.7 E 8 9 1018.6 - 0.0 - Partly cloudy 10 - - - -
26/08:00am 25.0 ESE 8 10 1018.5 - 0.0 - Partly cloudy 10 - - - -
26/07:30am 24.7 ESE 9 10 1018.5 - 0.0 - Partly cloudy 10 - - - -
26/07:00am 24.4 SE 6 8 1018.3 - 0.0 - Partly cloudy 10 - - - -
26/06:30am 21.4 CALM 0 0 1018.1 - 0.0 - Partly cloudy 10 - - - -
26/06:00am 21.0 CALM 0 3 1017.7 - 0.0 - Mostly clear 10 - - - -
26/05:30am 20.9 CALM 0 0 1017.6 - 0.0 - Partly cloudy 10 - - - -
26/05:00am 21.2 NNE 2 5 1017.3 - 0.0 - Partly cloudy 10 - - - -
26/04:30am 21.0 NNE 1 3 1017.2 - 0.0 - - 10 - - - -
26/04:00am 21.3 ENE 4 6 1017.2 - 0.0 - Partly cloudy 10 - - - -
26/03:30am 21.4 ENE 5 7 1017.1 - 0.0 - Partly cloudy 10 - - - -
26/03:00am 21.5 ENE 6 7 1016.9 - 0.0 - - 10 - - - -
26/02:30am 21.7 ENE 8 9 1017.2 - 0.0 - Partly cloudy 10 - - - -
26/02:00am 21.9 ENE 7 9 1017.4 - 0.0 - Partly cloudy 10 - - - -
26/01:30am 22.1 ENE 8 10 1017.6 - 0.0 - Partly cloudy 10 - - - -
26/01:00am 22.2 E 9 14 1018.0 - 0.0 - Partly cloudy 10 - - - -
26/12:30am 22.3 E 9 12 1018.2 - 0.0 - - 10 - - - -
26/12:00am 22.3 E 13 15 1018.3 - 0.0 - Mostly clear 10 - - - -
 
Date/Time
EST
Temp

°C
Wind Pressure Rain
since 9am
mm
Weather Cloud Vis
km
Sea
Height
m
Swell
Dir
 
Speed
knots
Gust
knots
hPa Trend Height
m
Period
s
Dir
25/11:30pm 22.5 E 12 14 1018.8 - 0.0 - - 10 - - - -
25/11:00pm 22.5 E 14 16 1019.0 - 0.0 - Partly cloudy 10 - - - -
25/10:30pm 22.6 ESE 13 14 1019.4 - 0.0 - Partly cloudy 10 - - - -
25/10:00pm 22.6 ESE 13 15 1019.5 - 0.0 - - 10 - - - -
25/09:30pm 22.6 ESE 14 16 1019.6 - 0.0 - Partly cloudy 10 - - - -
25/09:00pm 22.5 ESE 11 14 1019.2 - 0.0 - Mostly clear 10 - - - -
25/08:30pm 22.6 ESE 11 14 1019.2 - 0.0 - Partly cloudy 10 - - - -
25/08:00pm 22.7 ESE 13 15 1019.0 - 0.0 - Partly cloudy 10 - - - -
25/07:30pm 22.7 ESE 12 14 1018.7 - 0.0 - Partly cloudy 10 - - - -
25/07:00pm 22.7 ESE 12 14 1018.4 - 0.0 - - 10 - - - -
25/06:30pm 22.7 SE 13 15 1018.3 - 0.0 - - 10 - - - -
25/06:00pm 22.9 ESE 13 15 1017.9 - 0.0 - - 10 - - - -
25/05:30pm 23.1 ESE 14 15 1017.7 - 0.0 - Partly cloudy 10 - - - -
25/05:00pm 23.8 SE 13 17 1017.6 - 0.0 - Partly cloudy 10 - - - -
25/04:30pm 24.0 ESE 12 15 1017.3 - 0.0 - - 10 - - - -
25/04:00pm 24.3 ESE 14 16 1017.2 - 0.0 - - 10 - - - -
25/03:30pm 24.4 ESE 16 18 1017.3 - 0.0 - - 10 - - - -
25/03:00pm 24.6 ESE 15 17 1017.1 - 0.0 - - 10 - - - -
25/02:30pm 25.3 ESE 14 16 1017.5 - 0.0 - - 10 - - - -
25/02:00pm 24.8 E 15 17 1017.7 - 0.0 - - 10 - - - -
25/01:30pm 25.1 E 13 15 1018.0 - 0.0 - - 10 - - - -
25/01:00pm 25.1 E 13 15 1018.2 - 0.0 - - 10 - - - -
25/12:30pm 25.1 E 13 15 1018.7 - 0.0 - - 10 - - - -
25/12:00pm 25.2 E 13 15 1019.0 - 0.0 - - 10 - - - -
25/11:30am 25.4 E 11 16 1019.7 - 0.0 - Partly cloudy 10 - - - -
25/11:00am 25.2 SSE 13 15 1020.0 - 0.0 - Partly cloudy 10 - - - -
25/10:30am 25.5 SSE 12 14 1020.2 - 0.0 - - 10 - - - -
25/10:00am 25.4 ESE 11 12 1020.4 - 0.0 - Partly cloudy 10 - - - -
25/09:30am 25.6 ESE 12 13 1020.7 - 0.0 - Partly cloudy 10 - - - -
25/09:00am 25.1 ESE 12 15 1020.5 - 0.0 - Partly cloudy 10 - - - -
25/08:30am 25.5 ESE 12 14 1020.8 - 0.0 - Partly cloudy 10 - - - -
25/08:00am 25.0 ESE 11 13 1020.7 - 0.0 - Partly cloudy 10 - - - -
25/07:30am 24.6 ESE 13 15 1020.5 - 0.0 - Partly cloudy 10 - - - -
25/07:00am 24.0 ESE 10 12 1020.4 - 0.0 - - 10 - - - -
25/06:30am 23.6 ESE 10 13 1020.1 - 0.0 - - 10 - - - -
25/06:00am 22.9 ESE 12 15 1019.4 - 0.0 - - 10 - - - -
25/05:30am 22.3 E 11 13 1019.1 - 0.0 - - 10 - - - -
25/05:00am 22.2 E 10 13 1018.8 - 0.0 - - 10 - - - -
25/04:30am 22.3 ESE 13 15 1018.7 - 0.0 - - 10 - - - -
25/04:00am 22.5 E 16 19 1018.6 - 0.0 - - 10 - - - -
25/03:30am 22.7 ESE 16 18 1018.5 - 0.0 - Partly cloudy 10 - - - -
25/03:00am 22.5 ESE 16 18 1018.3 - 0.0 - Mostly clear 10 - - - -
25/02:30am 22.5 ESE 16 19 1018.7 - 0.0 - Partly cloudy 10 - - - -
25/02:00am 22.3 ESE 16 19 1018.8 - 0.0 - Partly cloudy 10 - - - -
25/01:30am 22.3 SE 14 17 1019.2 - 0.0 - Partly cloudy 10 - - - -
25/01:00am 22.2 ESE 16 18 1019.7 - 0.0 - Partly cloudy 10 - - - -
25/12:30am 22.3 ESE 16 20 1020.2 - 0.0 - - 10 - - - -
25/12:00am 22.3 ESE 15 18 1020.1 - 0.0 - Mostly clear 10 - - - -
 
Date/Time
EST
Temp

°C
Wind Pressure Rain
since 9am
mm
Weather Cloud Vis
km
Sea
Height
m
Swell
Dir
 
Speed
knots
Gust
knots
hPa Trend Height
m
Period
s
Dir
24/11:30pm 22.4 ESE 16 18 1020.6 - 0.0 - Partly cloudy 10 - - - -
24/11:00pm 22.4 ESE 14 17 1020.9 - 0.0 - Partly cloudy 10 - - - -
24/10:30pm 22.4 ESE 14 16 1021.1 - 0.0 - Partly cloudy 10 - - - -
24/10:00pm 22.3 ESE 14 17 1021.0 - 0.0 - Partly cloudy 10 - - - -
24/09:30pm 22.4 ESE 15 18 1020.8 - 0.0 - Partly cloudy 10 - - - -
24/09:00pm 22.5 ESE 14 17 1020.4 - 0.0 - Cloudy 10 - - - -
24/08:30pm 22.5 ESE 16 19 1020.5 - 0.0 - Partly cloudy 10 - - - -
24/08:00pm 22.5 ESE 16 19 1020.1 - 0.0 - Partly cloudy 10 - - - -
24/07:30pm 22.4 ESE 15 17 1020.0 - 0.0 - Partly cloudy 10 - - - -
24/07:00pm 22.4 SE 15 18 1019.8 - 0.0 - Partly cloudy 10 - - - -
24/06:30pm 22.5 ESE 15 17 1019.6 - 0.0 - - 10 - - - -
24/06:00pm 22.7 ESE 15 18 1019.0 - 0.0 - - 10 - - - -
24/05:30pm 23.0 ESE 15 17 1018.9 - 0.0 - - 10 - - - -
24/05:00pm 23.4 ESE 15 17 1018.5 - 0.0 - - 10 - - - -
24/04:30pm 23.7 ESE 15 19 1018.3 - 0.0 - - 10 - - - -
24/04:00pm 24.1 ESE 16 19 1018.2 - 0.0 - - 10 - - - -
24/03:30pm 24.4 ESE 16 18 1018.2 - 0.0 - - 10 - - - -
24/03:00pm 24.4 ESE 16 19 1018.2 - 0.0 - - 10 - - - -
24/02:30pm 25.1 ESE 15 17 1018.6 - 0.0 - - 10 - - - -
24/02:00pm 25.2 ESE 15 17 1018.7 - 0.0 - - 10 - - - -
24/01:30pm 25.4 ESE 14 16 1019.0 - 0.0 - - 10 - - - -
24/01:00pm 25.7 ESE 13 15 1019.4 - 0.0 - - 10 - - - -
24/12:30pm 25.7 ESE 12 14 1019.6 - 0.0 - - 10 - - - -
24/12:00pm 25.8 ESE 13 15 1019.7 - 0.0 - - 10 - - - -
24/11:30am 26.2 SE 13 15 1020.2 - 0.0 - - 10 - - - -
24/11:00am 25.4 SE 13 16 1020.6 - 0.0 - - 10 - - - -
24/10:30am 25.7 SE 13 15 1020.6 - 0.0 - - 10 - - - -
24/10:00am 25.2 SSE 14 17 1021.0 - 0.0 - - 10 - - - -
24/09:30am 25.2 SE 13 16 1021.1 - 0.0 - - 10 - - - -
24/09:00am 25.0 ESE 12 15 1020.8 - 0.0 - Mostly clear 10 - - - -
24/08:30am 24.5 SE 12 15 1021.1 - 0.0 - Partly cloudy 10 - - - -
24/08:00am 24.5 SE 12 15 1020.9 - 0.0 - Partly cloudy 10 - - - -
24/07:30am 24.4 SE 13 15 1020.6 - 0.0 - Partly cloudy 10 - - - -
24/07:00am 23.0 SE 12 15 1020.5 - 0.0 - Partly cloudy 10 - - - -
24/06:30am 23.0 SE 11 13 1020.1 - 0.0 - - 10 - - - -
24/06:00am 22.1 SE 10 12 1019.5 - 0.0 - - 10 - - - -
24/05:30am 21.1 SE 11 13 1019.4 - 0.0 - - 10 - - - -
24/05:00am 21.2 SE 11 14 1018.9 - 0.0 - Partly cloudy 10 - - - -
24/04:30am 21.2 SE 12 14 1018.6 - 0.0 - - 10 - - - -
24/04:00am 21.2 SE 12 13 1018.4 - 0.0 - - 10 - - - -
24/03:30am 21.4 SE 13 17 1018.3 - 0.0 - - 10 - - - -
24/03:00am 21.4 SE 12 15 1018.3 - 0.0 - - 10 - - - -
24/02:30am 21.7 ESE 12 14 1018.6 - 0.0 - - 10 - - - -
24/02:00am 21.7 ESE 12 14 1018.8 - 0.0 - - 10 - - - -
24/01:30am 21.8 ESE 13 16 1019.4 - 0.0 - - 10 - - - -
24/01:00am 21.9 ESE 13 15 1019.7 - 0.0 - - 10 - - - -
24/12:30am 22.0 ESE 13 16 1020.1 - 0.0 - - 10 - - - -
24/12:00am 22.0 ESE 12 15 1020.0 - 0.0 - Mostly clear 10 - - - -
 
Date/Time
EST
Temp

°C
Wind Pressure Rain
since 9am
mm
Weather Cloud Vis
km
Sea
Height
m
Swell
Dir
 
Speed
knots
Gust
knots
hPa Trend Height
m
Period
s
Dir
23/11:30pm 22.1 ESE 14 16 1020.6 - 0.0 - Partly cloudy 10 - - - -
23/11:00pm 22.2 SE 12 15 1020.8 - 0.0 - Partly cloudy 10 - - - -
23/10:30pm 22.2 ESE 14 17 1020.8 - 0.0 - Partly cloudy 10 - - - -
23/10:00pm 22.2 SE 14 16 1020.5 - 0.0 - Partly cloudy 10 - - - -
23/09:30pm 22.2 ESE 15 17 1020.5 - 0.0 - Partly cloudy 10 - - - -
23/09:00pm 22.3 ESE 16 19 1019.7 - 0.0 - Partly cloudy 10 - - - -
23/08:30pm 22.0 ESE 15 18 1020.0 - 0.0 - Partly cloudy 10 - - - -
23/08:00pm 22.0 ESE 13 16 1019.6 - 0.0 - - 10 - - - -
23/07:30pm 22.2 ESE 14 17 1019.5 - 0.0 - Partly cloudy 10 - - - -
23/07:00pm 22.3 ESE 13 15 1019.4 - 0.0 - Partly cloudy 10 - - - -
23/06:30pm 22.3 ESE 14 18 1019.0 - 0.0 - - 10 - - - -
23/06:00pm 22.5 ESE 14 18 1018.6 - 0.0 - Mostly clear 10 - - - -
23/05:30pm 22.5 ESE 17 20 1018.2 - 0.0 - - 10 - - - -
23/05:00pm 22.9 ESE 17 20 1017.8 - 0.0 - - 10 - - - -
23/04:30pm 22.9 ESE 17 21 1017.5 - 0.0 - Partly cloudy 10 - - - -

Other Formats:

Comma delimited format used in spreadsheet applications
http://www.bom.gov.au/fwo/IDQ60701/IDQ60701.94368.axf

JavaScript Object Notation format (JSON) in row-major order
http://www.bom.gov.au/fwo/IDQ60701/IDQ60701.94368.json